createdAt,value
2023-12-30T00:01:11.444Z,10.11
2023-12-30T00:03:39.562Z,10.21
2023-12-30T00:06:08.630Z,10.25
2023-12-30T00:08:36.775Z,10.23
2023-12-30T00:11:04.894Z,10.24
2023-12-30T00:13:32.903Z,10.20
2023-12-30T00:16:00.893Z,10.16
2023-12-30T00:18:28.865Z,10.14
2023-12-30T00:20:56.849Z,10.13
2023-12-30T00:23:27.013Z,10.11
2023-12-30T00:25:57.754Z,10.09
2023-12-30T00:28:25.624Z,10.03
2023-12-30T00:30:53.832Z,10.04
2023-12-30T00:33:21.934Z,10.06
2023-12-30T00:35:49.952Z,10.02
2023-12-30T00:38:24.129Z,10.01
2023-12-30T00:40:52.735Z,10.00
2023-12-30T00:43:23.854Z,10.02
2023-12-30T00:45:52.102Z,9.91
2023-12-30T00:48:21.814Z,9.83
2023-12-30T00:50:53.139Z,9.82
2023-12-30T00:53:25.279Z,9.71
2023-12-30T00:55:57.072Z,9.75
2023-12-30T00:58:25.901Z,9.78
2023-12-30T01:00:54.256Z,9.81
2023-12-30T01:03:26.623Z,9.84
2023-12-30T01:05:54.794Z,9.86
2023-12-30T01:08:24.522Z,9.88
2023-12-30T01:11:15.742Z,9.90
2023-12-30T01:13:43.952Z,9.89
2023-12-30T01:16:17.663Z,9.89
2023-12-30T01:18:50.925Z,9.94
2023-12-30T01:21:36.946Z,9.99
2023-12-30T01:24:05.431Z,9.99
2023-12-30T01:26:41.136Z,9.80
2023-12-30T01:29:21.960Z,9.73
2023-12-30T01:31:50.383Z,9.76
2023-12-30T01:34:18.694Z,9.89
2023-12-30T01:36:47.007Z,9.95
2023-12-30T01:39:15.444Z,10.02
2023-12-30T01:41:43.535Z,10.06
2023-12-30T01:44:11.674Z,10.22
2023-12-30T01:46:40.984Z,10.21
2023-12-30T01:49:09.177Z,10.08
2023-12-30T01:51:37.316Z,10.01
2023-12-30T01:54:06.194Z,10.02
2023-12-30T01:56:35.177Z,10.01
2023-12-30T01:59:04.056Z,9.98
2023-12-30T02:01:32.770Z,10.00
2023-12-30T02:04:01.668Z,10.05
2023-12-30T02:06:29.803Z,10.07
2023-12-30T02:08:58.014Z,10.13
2023-12-30T02:11:26.601Z,10.13
2023-12-30T02:13:57.113Z,10.13
2023-12-30T02:16:27.658Z,10.16
2023-12-30T02:18:56.114Z,10.18
2023-12-30T02:21:24.532Z,10.18
2023-12-30T02:23:55.873Z,10.23
2023-12-30T02:26:25.221Z,10.11
2023-12-30T02:28:56.090Z,9.90
2023-12-30T02:31:24.247Z,9.87
2023-12-30T02:33:54.653Z,9.86
2023-12-30T02:36:24.935Z,9.81
2023-12-30T02:38:53.500Z,9.67
2023-12-30T02:41:21.702Z,9.80
2023-12-30T02:43:59.280Z,9.76
2023-12-30T02:46:28.195Z,9.77
2023-12-30T02:49:05.513Z,9.72
2023-12-30T02:51:45.153Z,9.71
2023-12-30T02:54:17.579Z,9.65
2023-12-30T02:56:45.601Z,9.64
2023-12-30T02:59:13.485Z,9.56
2023-12-30T03:01:41.896Z,9.55
2023-12-30T03:04:10.009Z,9.39
2023-12-30T03:06:38.036Z,9.32
2023-12-30T03:09:06.026Z,9.27
2023-12-30T03:11:34.165Z,9.30
2023-12-30T03:14:02.267Z,9.27
2023-12-30T03:16:30.474Z,9.26
2023-12-30T03:18:59.043Z,9.22
2023-12-30T03:21:27.466Z,9.24
2023-12-30T03:23:55.629Z,9.22
2023-12-30T03:26:24.176Z,9.18
2023-12-30T03:28:52.262Z,9.07
2023-12-30T03:31:30.115Z,9.09
2023-12-30T03:33:58.324Z,8.97
2023-12-30T03:36:26.493Z,9.02
2023-12-30T03:38:55.073Z,9.02
2023-12-30T03:41:23.231Z,9.04
2023-12-30T03:43:51.691Z,8.99
2023-12-30T03:46:19.730Z,9.04
2023-12-30T03:48:47.871Z,9.02
2023-12-30T03:51:16.044Z,9.00
2023-12-30T03:53:44.122Z,9.02
2023-12-30T03:56:13.555Z,8.93
2023-12-30T03:58:41.558Z,8.95
2023-12-30T04:01:09.757Z,8.97
2023-12-30T04:03:37.851Z,8.86
2023-12-30T04:06:05.969Z,8.64
2023-12-30T04:08:33.956Z,8.57
2023-12-30T04:11:01.859Z,8.68
2023-12-30T04:13:29.898Z,8.68
2023-12-30T04:15:58.146Z,8.59
2023-12-30T04:18:26.343Z,8.58
2023-12-30T04:20:54.409Z,8.45
2023-12-30T04:23:22.361Z,8.30
2023-12-30T04:25:50.633Z,8.18
2023-12-30T04:28:18.659Z,8.19
2023-12-30T04:30:46.804Z,8.20
2023-12-30T04:33:14.998Z,8.33
2023-12-30T04:35:43.032Z,8.36
2023-12-30T04:38:10.981Z,8.15
2023-12-30T04:40:38.964Z,8.10
2023-12-30T04:43:07.152Z,8.05
2023-12-30T04:45:35.178Z,7.84
2023-12-30T04:48:03.581Z,7.86
2023-12-30T04:50:33.440Z,7.76
2023-12-30T04:53:01.834Z,7.70
2023-12-30T04:55:30.595Z,7.61
2023-12-30T04:57:59.064Z,7.62
2023-12-30T05:00:27.301Z,7.58
2023-12-30T05:02:56.587Z,7.59
2023-12-30T05:05:24.918Z,7.58
2023-12-30T05:07:53.062Z,7.51
2023-12-30T05:10:21.078Z,7.54
2023-12-30T05:12:50.819Z,7.61
2023-12-30T05:15:19.048Z,7.60
2023-12-30T05:17:47.116Z,7.69
2023-12-30T05:20:17.710Z,7.73
2023-12-30T05:22:46.064Z,7.81
2023-12-30T05:25:14.302Z,7.83
2023-12-30T05:27:42.223Z,7.86
2023-12-30T05:30:10.861Z,7.76
2023-12-30T05:32:38.966Z,7.73
2023-12-30T05:35:11.106Z,7.81
2023-12-30T05:37:39.287Z,7.74
2023-12-30T05:40:09.712Z,7.64
2023-12-30T05:42:38.211Z,7.75
2023-12-30T05:45:07.752Z,7.83
2023-12-30T05:47:36.488Z,7.76
2023-12-30T05:50:05.284Z,7.80
2023-12-30T05:52:33.652Z,7.84
2023-12-30T05:55:01.713Z,7.80
2023-12-30T05:57:30.205Z,7.78
2023-12-30T05:59:59.249Z,7.74
2023-12-30T06:02:27.299Z,7.69
2023-12-30T06:04:55.404Z,7.68
2023-12-30T06:07:23.420Z,7.71
2023-12-30T06:09:51.563Z,7.62
2023-12-30T06:12:19.491Z,7.65
2023-12-30T06:14:47.484Z,7.66
2023-12-30T06:17:16.086Z,7.64
2023-12-30T06:19:45.332Z,7.58
2023-12-30T06:22:13.419Z,7.55
2023-12-30T06:24:41.422Z,7.60
2023-12-30T06:27:09.360Z,7.67
2023-12-30T06:29:37.231Z,7.67
2023-12-30T06:32:06.697Z,7.68
2023-12-30T06:34:35.925Z,7.71
2023-12-30T06:37:04.555Z,7.69
2023-12-30T06:39:32.569Z,7.73
2023-12-30T06:42:01.811Z,7.72
2023-12-30T06:44:30.257Z,7.65
2023-12-30T06:46:59.071Z,7.62
2023-12-30T06:49:27.440Z,7.64
2023-12-30T06:51:55.811Z,7.66
2023-12-30T06:54:23.928Z,7.55
2023-12-30T06:56:56.186Z,7.61
2023-12-30T06:59:24.202Z,7.57
2023-12-30T07:01:52.144Z,7.53
2023-12-30T07:04:20.236Z,7.47
2023-12-30T07:06:48.641Z,7.41
2023-12-30T07:09:16.814Z,7.36
2023-12-30T07:11:44.864Z,7.22
2023-12-30T07:14:12.952Z,7.15
2023-12-30T07:16:41.494Z,7.18
2023-12-30T07:19:09.500Z,7.09
2023-12-30T07:21:37.482Z,7.19
2023-12-30T07:24:05.966Z,7.17
2023-12-30T07:26:33.996Z,7.23
2023-12-30T07:29:02.054Z,7.21
2023-12-30T07:31:29.957Z,7.26
2023-12-30T07:33:58.486Z,7.00
2023-12-30T07:36:28.232Z,7.03
2023-12-30T07:38:56.239Z,7.02
2023-12-30T07:41:24.671Z,7.04
2023-12-30T07:43:52.607Z,6.99
2023-12-30T07:46:20.929Z,7.03
2023-12-30T07:48:48.911Z,7.02
2023-12-30T07:51:17.169Z,7.00
2023-12-30T07:53:45.161Z,7.05
2023-12-30T07:56:13.158Z,7.05
2023-12-30T07:58:41.427Z,7.03
2023-12-30T08:01:10.046Z,7.05
2023-12-30T08:03:38.016Z,7.23
2023-12-30T08:06:06.751Z,7.29
2023-12-30T08:08:34.737Z,7.33
2023-12-30T08:11:02.850Z,7.44
2023-12-30T08:13:30.860Z,7.42
2023-12-30T08:15:58.849Z,7.52
2023-12-30T08:18:27.015Z,7.53
2023-12-30T08:20:55.401Z,7.51
2023-12-30T08:23:23.408Z,7.51
2023-12-30T08:25:51.476Z,7.57
2023-12-30T08:28:19.502Z,7.61
2023-12-30T08:30:47.580Z,7.50
2023-12-30T08:33:15.871Z,7.54
2023-12-30T08:35:43.926Z,7.53
2023-12-30T08:38:12.261Z,7.42
2023-12-30T08:40:40.377Z,7.50
2023-12-30T08:43:08.495Z,7.55
2023-12-30T08:45:36.494Z,7.52
2023-12-30T08:48:06.007Z,7.54
2023-12-30T08:50:34.406Z,7.76
2023-12-30T08:53:02.521Z,7.70
2023-12-30T08:55:30.683Z,7.72
2023-12-30T08:57:58.720Z,7.73
2023-12-30T09:00:26.801Z,7.90
2023-12-30T09:02:56.684Z,7.96
2023-12-30T09:05:27.645Z,8.02
2023-12-30T09:07:56.214Z,8.27
2023-12-30T09:10:24.157Z,8.19
2023-12-30T09:12:52.256Z,8.08
2023-12-30T09:15:20.169Z,7.97
2023-12-30T09:17:48.247Z,7.92
2023-12-30T09:20:16.572Z,7.78
2023-12-30T09:22:44.889Z,7.45
2023-12-30T09:25:13.135Z,7.40
2023-12-30T09:27:41.248Z,7.17
2023-12-30T09:30:09.980Z,6.91
2023-12-30T09:32:38.242Z,6.80
2023-12-30T09:35:07.405Z,6.71
2023-12-30T09:37:35.454Z,6.45
2023-12-30T09:40:04.044Z,6.52
2023-12-30T09:42:32.182Z,6.41
2023-12-30T09:45:01.118Z,6.53
2023-12-30T09:47:30.891Z,6.55
2023-12-30T09:49:59.304Z,6.61
2023-12-30T09:52:27.276Z,6.63
2023-12-30T09:54:55.418Z,6.67
2023-12-30T09:57:23.452Z,6.69
2023-12-30T09:59:52.985Z,6.74
2023-12-30T10:02:20.974Z,6.87
2023-12-30T10:04:50.819Z,6.97
2023-12-30T10:07:20.098Z,7.11
2023-12-30T10:09:48.368Z,7.22
2023-12-30T10:12:16.439Z,7.40
2023-12-30T10:14:44.308Z,7.52
2023-12-30T10:17:12.953Z,7.53
2023-12-30T10:19:41.166Z,7.66
2023-12-30T10:22:09.998Z,7.71
2023-12-30T10:24:38.543Z,7.68
2023-12-30T10:27:06.698Z,7.76
2023-12-30T10:29:46.397Z,7.74
2023-12-30T10:32:22.561Z,7.78
2023-12-30T10:34:51.161Z,7.82
2023-12-30T10:37:23.898Z,7.74
2023-12-30T10:39:54.673Z,7.87
2023-12-30T10:42:22.687Z,7.90
2023-12-30T10:44:51.610Z,7.99
2023-12-30T10:47:22.683Z,8.11
2023-12-30T10:49:55.994Z,8.16
2023-12-30T10:52:28.058Z,8.20
2023-12-30T10:55:10.299Z,8.28
2023-12-30T10:57:46.026Z,8.35
2023-12-30T11:00:16.831Z,8.40
2023-12-30T11:02:46.727Z,8.41
2023-12-30T11:05:31.113Z,8.32
2023-12-30T11:07:59.372Z,8.36
2023-12-30T11:10:28.622Z,8.39
2023-12-30T11:12:57.681Z,8.36
2023-12-30T11:15:31.713Z,8.28
2023-12-30T11:18:00.342Z,8.33
2023-12-30T11:20:34.448Z,8.41
2023-12-30T11:23:05.202Z,8.39
2023-12-30T11:25:47.315Z,8.46
2023-12-30T11:28:15.653Z,8.49
2023-12-30T11:30:52.575Z,8.50
2023-12-30T11:33:21.058Z,8.31
2023-12-30T11:35:55.347Z,8.24
2023-12-30T11:38:25.704Z,8.28
2023-12-30T11:40:58.291Z,8.36
2023-12-30T11:43:26.667Z,8.31
2023-12-30T11:45:55.175Z,8.28
2023-12-30T11:48:24.269Z,8.26
2023-12-30T11:50:55.280Z,8.18
2023-12-30T11:53:23.422Z,8.13
2023-12-30T11:55:51.526Z,8.01
2023-12-30T11:58:19.517Z,8.12
2023-12-30T12:00:47.684Z,8.09
2023-12-30T12:03:15.695Z,7.95
2023-12-30T12:05:43.736Z,7.92
2023-12-30T12:08:12.387Z,7.86
2023-12-30T12:10:40.495Z,7.86
2023-12-30T12:13:11.086Z,7.81
2023-12-30T12:15:40.880Z,7.85
2023-12-30T12:18:09.328Z,7.73
2023-12-30T12:21:17.561Z,7.83
2023-12-30T12:23:45.687Z,7.77
2023-12-30T12:26:13.632Z,7.75
2023-12-30T12:28:42.038Z,7.90
2023-12-30T12:31:15.125Z,7.72
2023-12-30T12:33:43.167Z,7.76
2023-12-30T12:36:11.585Z,7.76
2023-12-30T12:38:39.490Z,7.68
2023-12-30T12:41:07.599Z,7.74
2023-12-30T12:43:35.670Z,7.78
2023-12-30T12:46:04.979Z,7.84
2023-12-30T12:48:33.382Z,7.77
2023-12-30T12:51:02.185Z,7.90
2023-12-30T12:53:30.124Z,7.88
2023-12-30T12:56:05.815Z,7.82
2023-12-30T12:58:36.676Z,7.81
2023-12-30T13:01:08.691Z,7.82
2023-12-30T13:03:37.963Z,7.58
2023-12-30T13:06:14.116Z,7.59
2023-12-30T13:08:53.490Z,7.67
2023-12-30T13:11:31.447Z,7.83
2023-12-30T13:14:02.010Z,7.88
2023-12-30T13:16:31.653Z,7.82
2023-12-30T13:19:02.304Z,7.74
2023-12-30T13:21:30.512Z,7.79
2023-12-30T13:23:59.167Z,7.75
2023-12-30T13:26:28.596Z,7.68
2023-12-30T13:28:57.584Z,7.53
2023-12-30T13:31:27.129Z,7.57
2023-12-30T13:33:57.370Z,7.58
2023-12-30T13:36:26.879Z,7.46
2023-12-30T13:39:00.906Z,7.45
2023-12-30T13:41:29.061Z,7.71
2023-12-30T13:43:58.042Z,7.71
2023-12-30T13:46:44.758Z,7.63
2023-12-30T13:49:13.226Z,7.65
2023-12-30T13:51:45.418Z,7.58
2023-12-30T13:54:15.614Z,7.52
2023-12-30T13:56:45.853Z,7.55
2023-12-30T13:59:13.883Z,7.56
2023-12-30T14:01:42.116Z,7.62
2023-12-30T14:04:10.392Z,7.62
2023-12-30T14:06:40.624Z,7.64
2023-12-30T14:09:33.150Z,7.59
2023-12-30T14:12:03.808Z,7.61
2023-12-30T14:14:41.634Z,7.66
2023-12-30T14:17:15.185Z,7.61
2023-12-30T14:19:43.390Z,7.61
2023-12-30T14:22:11.551Z,7.57
2023-12-30T14:24:40.090Z,7.65
2023-12-30T14:27:07.999Z,7.64
2023-12-30T14:29:37.139Z,7.70
2023-12-30T14:32:06.449Z,7.70
2023-12-30T14:34:36.291Z,7.66
2023-12-30T14:37:06.304Z,7.60
2023-12-30T14:39:34.415Z,7.63
2023-12-30T14:42:02.574Z,7.64
2023-12-30T14:44:30.564Z,7.60
2023-12-30T14:46:59.018Z,7.62
2023-12-30T14:49:27.997Z,7.67
2023-12-30T14:51:55.983Z,7.62
2023-12-30T14:54:24.359Z,7.59
2023-12-30T14:56:52.484Z,7.65
2023-12-30T14:59:20.804Z,7.62
2023-12-30T15:01:48.835Z,7.54
2023-12-30T15:04:16.849Z,7.54
2023-12-30T15:06:44.866Z,7.57
2023-12-30T15:09:13.564Z,7.58
2023-12-30T15:11:41.544Z,7.56
2023-12-30T15:14:09.819Z,7.53
2023-12-30T15:16:38.133Z,7.52
2023-12-30T15:19:06.443Z,7.53
2023-12-30T15:21:35.468Z,7.59
2023-12-30T15:24:03.928Z,7.52
2023-12-30T15:26:31.898Z,7.47
2023-12-30T15:28:59.913Z,7.49
2023-12-30T15:31:28.259Z,7.49
2023-12-30T15:33:57.118Z,7.52
2023-12-30T15:36:25.420Z,7.51
2023-12-30T15:38:53.468Z,7.51
2023-12-30T15:41:23.759Z,7.36
2023-12-30T15:43:51.708Z,7.40
2023-12-30T15:46:20.261Z,7.29
2023-12-30T15:48:50.304Z,7.37
2023-12-30T15:51:19.416Z,7.34
2023-12-30T15:53:47.862Z,7.35
2023-12-30T15:59:44.492Z,7.29
2023-12-30T16:02:19.174Z,7.26
2023-12-30T16:04:48.561Z,7.20
2023-12-30T16:07:16.611Z,7.23
2023-12-30T16:09:44.842Z,7.24
2023-12-30T16:12:12.920Z,7.29
2023-12-30T16:14:41.075Z,7.32
2023-12-30T16:17:09.164Z,7.32
2023-12-30T16:19:37.536Z,7.31
2023-12-30T16:22:05.894Z,7.27
2023-12-30T16:24:34.027Z,7.26
2023-12-30T16:27:02.051Z,7.24
2023-12-30T16:29:29.973Z,7.30
2023-12-30T16:32:01.748Z,7.35
2023-12-30T16:34:29.989Z,7.34
2023-12-30T16:36:58.109Z,7.30
2023-12-30T16:39:26.239Z,7.23
2023-12-30T16:41:54.751Z,7.17
2023-12-30T16:44:23.019Z,7.21
2023-12-30T16:46:52.066Z,7.31
2023-12-30T16:49:20.499Z,7.27
2023-12-30T16:51:48.525Z,7.23
2023-12-30T16:54:16.574Z,7.22
2023-12-30T16:56:44.734Z,7.17
2023-12-30T16:59:12.712Z,7.15
2023-12-30T17:01:43.560Z,7.14
2023-12-30T17:04:11.883Z,7.13
2023-12-30T17:06:39.863Z,7.17
2023-12-30T17:09:07.808Z,7.18
2023-12-30T17:11:40.706Z,7.14
2023-12-30T17:14:11.040Z,7.16
2023-12-30T17:16:39.172Z,7.20
2023-12-30T17:19:07.354Z,7.25
2023-12-30T17:21:35.930Z,7.17
2023-12-30T17:24:04.599Z,7.19
2023-12-30T17:26:32.880Z,7.22
2023-12-30T17:29:00.988Z,7.22
2023-12-30T17:31:28.971Z,7.22
2023-12-30T17:33:57.209Z,7.23
2023-12-30T17:36:26.766Z,7.19
2023-12-30T17:38:54.698Z,7.21
2023-12-30T17:41:22.724Z,7.22
2023-12-30T17:43:50.700Z,7.18
2023-12-30T17:46:18.717Z,7.16
2023-12-30T17:48:46.681Z,7.10
2023-12-30T17:51:14.590Z,7.07
2023-12-30T17:53:42.461Z,7.05
2023-12-30T17:56:10.744Z,6.99
2023-12-30T17:58:39.087Z,7.00
2023-12-30T18:01:09.315Z,6.98
2023-12-30T18:03:37.444Z,7.06
2023-12-30T18:06:05.497Z,7.07
2023-12-30T18:08:33.450Z,7.13
2023-12-30T18:11:01.328Z,7.17
2023-12-30T18:13:29.367Z,7.20
2023-12-30T18:15:59.903Z,7.22
2023-12-30T18:18:27.944Z,7.27
2023-12-30T18:20:56.004Z,7.30
2023-12-30T18:23:26.702Z,7.34
2023-12-30T18:26:15.329Z,7.21
2023-12-30T18:28:43.413Z,7.33
2023-12-30T18:31:12.015Z,7.29
2023-12-30T18:33:40.422Z,7.39
2023-12-30T18:36:09.225Z,7.26
2023-12-30T18:38:37.224Z,7.35
2023-12-30T18:41:05.229Z,7.39
2023-12-30T18:43:34.961Z,7.42
2023-12-30T18:46:03.203Z,7.43
2023-12-30T18:48:31.494Z,7.46
2023-12-30T18:51:00.500Z,7.48
2023-12-30T18:53:28.542Z,7.46
2023-12-30T18:56:04.428Z,7.44
2023-12-30T18:58:32.638Z,7.41
2023-12-30T19:01:01.632Z,7.45
2023-12-30T19:03:30.850Z,7.46
2023-12-30T19:05:59.538Z,7.40
2023-12-30T19:08:31.338Z,7.30
2023-12-30T19:10:59.588Z,7.28
2023-12-30T19:13:27.612Z,7.29
2023-12-30T19:15:56.023Z,7.29
2023-12-30T19:18:24.054Z,7.35
2023-12-30T19:20:53.533Z,7.34
2023-12-30T19:23:21.441Z,7.30
2023-12-30T19:25:50.432Z,7.26
2023-12-30T19:28:18.519Z,7.24
2023-12-30T19:30:46.743Z,7.23
2023-12-30T19:33:15.424Z,7.21
2023-12-30T19:35:44.216Z,7.19
2023-12-30T19:38:12.686Z,7.12
2023-12-30T19:40:46.762Z,7.05
2023-12-30T19:43:15.294Z,7.04
2023-12-30T19:45:43.650Z,7.03
2023-12-30T19:48:11.797Z,7.03
2023-12-30T19:50:43.985Z,7.05
2023-12-30T19:53:16.634Z,7.05
2023-12-30T19:55:44.817Z,7.05
2023-12-30T19:58:13.003Z,7.04
2023-12-30T20:00:41.303Z,7.02
2023-12-30T20:03:12.027Z,6.99
2023-12-30T20:05:40.165Z,7.02
2023-12-30T20:08:08.390Z,7.04
2023-12-30T20:10:36.710Z,6.97
2023-12-30T20:13:05.318Z,7.01
2023-12-30T20:15:33.632Z,7.00
2023-12-30T20:18:03.357Z,6.95
2023-12-30T20:20:31.908Z,6.91
2023-12-30T20:23:01.078Z,6.84
2023-12-30T20:25:31.913Z,6.85
2023-12-30T20:28:01.421Z,6.84
2023-12-30T20:30:29.819Z,6.77
2023-12-30T20:32:58.112Z,6.73
2023-12-30T20:35:26.581Z,6.67
2023-12-30T20:37:55.104Z,6.57
2023-12-30T20:40:23.212Z,6.49
2023-12-30T20:42:51.286Z,6.44
2023-12-30T20:45:19.803Z,6.38
2023-12-30T20:47:47.806Z,6.36
2023-12-30T20:50:16.008Z,6.34
2023-12-30T20:52:44.480Z,6.32
2023-12-30T20:55:19.440Z,6.32
2023-12-30T20:57:49.673Z,6.34
2023-12-30T21:00:21.514Z,6.37
2023-12-30T21:02:49.703Z,6.40
2023-12-30T21:05:17.936Z,6.41
2023-12-30T21:07:46.010Z,6.41
2023-12-30T21:10:14.961Z,6.40
2023-12-30T21:12:43.029Z,6.45
2023-12-30T21:15:11.384Z,6.43
2023-12-30T21:17:39.753Z,6.40
2023-12-30T21:20:10.955Z,6.37
2023-12-30T21:22:39.564Z,6.40
2023-12-30T21:25:16.175Z,6.41
2023-12-30T21:27:51.468Z,6.45
2023-12-30T21:30:19.493Z,6.46
2023-12-30T21:32:50.294Z,6.39
2023-12-30T21:35:21.697Z,6.36
2023-12-30T21:37:50.585Z,6.30
2023-12-30T21:40:19.937Z,6.22
2023-12-30T21:42:48.286Z,6.20
2023-12-30T21:45:18.346Z,6.17
2023-12-30T21:47:46.825Z,6.10
2023-12-30T21:50:15.206Z,5.98
2023-12-30T21:52:44.581Z,6.00
2023-12-30T21:55:21.687Z,5.95
2023-12-30T21:57:51.397Z,6.10
2023-12-30T22:00:19.737Z,6.05
2023-12-30T22:02:48.243Z,5.86
2023-12-30T22:05:18.783Z,5.95
2023-12-30T22:07:46.930Z,5.89
2023-12-30T22:10:15.406Z,5.83
2023-12-30T22:12:43.433Z,5.77
2023-12-30T22:15:11.538Z,5.72
2023-12-30T22:17:39.794Z,5.70
2023-12-30T22:20:10.901Z,5.78
2023-12-30T22:22:39.137Z,5.74
2023-12-30T22:25:10.076Z,5.68
2023-12-30T22:27:41.667Z,5.67
2023-12-30T22:30:10.306Z,5.60
2023-12-30T22:32:38.746Z,5.52
2023-12-30T22:35:18.363Z,5.49
2023-12-30T22:37:46.641Z,5.45
2023-12-30T22:40:15.446Z,5.43
2023-12-30T22:42:46.286Z,5.39
2023-12-30T22:45:16.961Z,5.40
2023-12-30T22:47:47.595Z,5.36
2023-12-30T22:50:24.936Z,5.39
2023-12-30T22:52:53.240Z,5.40
2023-12-30T22:55:22.990Z,5.32
2023-12-30T22:57:51.161Z,5.30
2023-12-30T23:00:27.415Z,5.26
2023-12-30T23:02:56.319Z,5.31
2023-12-30T23:05:24.550Z,5.39
2023-12-30T23:07:52.783Z,5.37
2023-12-30T23:10:20.789Z,5.35
2023-12-30T23:12:48.928Z,5.30
2023-12-30T23:15:17.295Z,5.26
2023-12-30T23:17:45.630Z,5.24
2023-12-30T23:20:14.909Z,5.25
2023-12-30T23:22:43.443Z,5.19
2023-12-30T23:25:11.627Z,5.18
2023-12-30T23:27:40.240Z,5.14
2023-12-30T23:30:08.890Z,5.14
2023-12-30T23:32:37.776Z,5.12
2023-12-30T23:35:10.024Z,5.14
2023-12-30T23:38:40.672Z,5.11
2023-12-30T23:40:44.790Z,5.06
2023-12-30T23:43:20.154Z,5.05
2023-12-30T23:45:55.889Z,5.03
2023-12-30T23:48:24.525Z,5.01
2023-12-30T23:50:54.213Z,5.01
2023-12-30T23:53:27.101Z,5.00
2023-12-30T23:55:55.221Z,4.99
2023-12-30T23:58:23.264Z,4.99
